Time;durP1;ratioP1;P1;durP2;ratioP2;P2;SDS_P1;SDS_P2;PMS_P1;PMS_P2;Temp;Humidity;BMP_temperature;BMP_pressure;BME280_temperature;BME280_humidity;BME280_pressure;Samples;Min_cycle;Max_cycle;Signal;HPM_P1;HPM_P2
2023/01/04 00:00:24;;;;;;;15.23;9.48;;;;;;;;;;5057062;28;20025;-68
2023/01/04 00:02:50;;;;;;;16.60;9.27;;;;;;;;;;5073500;28;20103;-68
2023/01/04 00:05:16;;;;;;;13.15;8.75;;;;;;;;;;5074853;28;20028;-66
2023/01/04 00:07:42;;;;;;;12.07;9.23;;;;;;;;;;5074032;28;20056;-67
2023/01/04 00:10:08;;;;;;;12.13;9.43;;;;;;;;;;5074775;28;20025;-67
2023/01/04 00:12:35;;;;;;;15.35;9.18;;;;;;;;;;5074934;28;20021;-67
2023/01/04 00:15:01;;;;;;;15.48;9.80;;;;;;;;;;5072847;28;20703;-67
2023/01/04 00:17:27;;;;;;;19.48;9.80;;;;;;;;;;5082929;28;20107;-67
2023/01/04 00:19:53;;;;;;;14.40;10.13;;;;;;;;;;5093832;28;20115;-66
2023/01/04 00:22:19;;;;;;;14.55;9.75;;;;;;;;;;5094666;28;20031;-66
2023/01/04 00:24:45;;;;;;;12.90;9.15;;;;;;;;;;5075430;28;20028;-67
2023/01/04 00:27:11;;;;;;;13.57;9.45;;;;;;;;;;5094838;28;20520;-67
2023/01/04 00:29:37;;;;;;;13.50;8.40;;;;;;;;;;5094349;28;20098;-67
2023/01/04 00:32:03;;;;;;;12.60;9.10;;;;;;;;;;5059572;28;20098;-67
2023/01/04 00:34:29;;;;;;;12.88;8.85;;;;;;;;;;5053773;28;20028;-66
2023/01/04 00:36:55;;;;;;;13.85;8.77;;;2.80;99.90;;;;;;5085000;28;20028;-67
2023/01/04 00:39:20;;;;;;;13.07;9.30;;;2.60;99.90;;;;;;5093658;28;20039;-67
2023/01/04 00:41:52;;;;;;;14.35;9.95;;;2.60;99.90;;;;;;5075353;28;20488;-67
2023/01/04 00:44:20;;;;;;;14.60;9.60;;;2.50;99.90;;;;;;5093907;28;20024;-66
2023/01/04 00:46:46;;;;;;;15.48;10.07;;;2.40;99.90;;;;;;5073034;28;20417;-67
2023/01/04 00:49:12;;;;;;;14.45;9.75;;;2.40;99.90;;;;;;5069233;28;20125;-67
2023/01/04 00:51:40;;;;;;;15.57;9.45;;;2.30;99.90;;;;;;5053589;28;20159;-67
2023/01/04 00:54:09;;;;;;;16.98;10.65;;;2.30;99.90;;;;;;5053051;28;20028;-66
2023/01/04 00:56:35;;;;;;;14.10;10.25;;;2.20;99.90;;;;;;5053701;28;20122;-67
2023/01/04 00:59:02;;;;;;;14.40;10.65;;;2.20;99.90;;;;;;5070757;28;20068;-66
2023/01/04 01:01:29;;;;;;;16.17;10.57;;;2.10;99.90;;;;;;5073553;28;20085;-66
2023/01/04 01:03:57;;;;;;;16.10;11.25;;;2.10;99.90;;;;;;5072238;28;20107;-67
2023/01/04 01:06:24;;;;;;;16.95;12.15;;;2.20;99.90;;;;;;5073698;28;20024;-67
2023/01/04 01:08:50;;;;;;;17.52;11.40;;;2.20;99.90;;;;;;5072537;28;20028;-67
2023/01/04 01:11:16;;;;;;;17.33;11.32;;;2.30;99.90;;;;;;5073400;28;20020;-67
2023/01/04 01:13:41;;;;;;;17.08;10.60;;;2.20;99.90;;;;;;5072432;28;20102;-68
2023/01/04 01:16:13;;;;;;;13.77;10.18;;;2.20;99.90;;;;;;5072609;28;20111;-66
2023/01/04 01:18:40;;;;;;;17.45;10.80;;;2.20;99.90;;;;;;5083415;28;20139;-67
2023/01/04 01:21:07;;;;;;;16.83;10.65;;;2.10;99.90;;;;;;5093204;28;20024;-67
2023/01/04 01:23:33;;;;;;;16.30;10.98;;;2.10;99.90;;;;;;5092638;28;20044;-67
2023/01/04 01:26:00;;;;;;;16.00;10.35;;;2.10;99.90;;;;;;5092843;28;20233;-66
2023/01/04 01:28:27;;;;;;;17.48;11.50;;;2.00;99.90;;;;;;5092921;28;20039;-66
2023/01/04 01:30:52;;;;;;;17.98;11.15;;;2.00;99.90;;;;;;5092777;28;20032;-66
2023/01/04 01:33:18;;;;;;;14.05;10.13;;;1.90;99.90;;;;;;5093095;28;20081;-67
2023/01/04 01:35:44;;;;;;;17.42;10.10;;;1.90;99.90;;;;;;5084614;28;20029;-67
2023/01/04 01:38:09;;;;;;;17.63;10.85;;;1.80;99.90;;;;;;5072250;28;20025;-67
2023/01/04 01:40:43;;;;;;;18.67;10.55;;;1.70;99.90;;;;;;5073251;28;20035;-66
2023/01/04 01:43:19;;;;;;;16.73;10.65;;;1.70;99.90;;;;;;5072734;28;20485;-66
2023/01/04 01:45:48;;;;;;;19.23;12.30;;;1.70;99.90;;;;;;5072258;28;20043;-67
2023/01/04 01:48:25;;;;;;;17.05;10.77;;;1.70;99.90;;;;;;5070061;28;20064;-67
2023/01/04 01:50:58;;;;;;;15.75;10.48;;;1.80;99.90;;;;;;5052079;28;20037;-66
2023/01/04 01:53:26;;;;;;;16.55;10.45;;;1.70;99.90;;;;;;5052091;28;20382;-66
2023/01/04 01:55:52;;;;;;;15.93;10.93;;;1.70;99.90;;;;;;5051599;28;20039;-67
2023/01/04 01:58:25;;;;;;;18.55;11.23;;;1.70;99.90;;;;;;5059301;28;20032;-67
2023/01/04 02:00:50;;;;;;;16.38;10.43;;;1.60;99.90;;;;;;5092109;28;20111;-67
2023/01/04 02:03:19;;;;;;;16.60;10.60;;;1.60;99.90;;;;;;5092083;28;20103;-67
2023/01/04 02:05:48;;;;;;;17.73;10.43;;;1.60;99.90;;;;;;5092056;28;20394;-67
2023/01/04 02:08:14;;;;;;;13.40;9.23;;;1.60;99.90;;;;;;5092580;28;20109;-67
2023/01/04 02:10:40;;;;;;;16.05;9.95;;;1.60;99.90;;;;;;5091508;28;20137;-67
2023/01/04 02:13:11;;;;;;;14.45;10.23;;;1.50;99.90;;;;;;5091803;28;20028;-67
2023/01/04 02:16:01;;;;;;;18.98;10.80;;;1.50;99.90;;;;;;5092635;28;20036;-67
2023/01/04 02:18:33;;;;;;;19.27;11.10;;;1.50;99.90;;;;;;5072442;28;20441;-67
2023/01/04 02:21:05;;;;;;;16.60;9.75;;;1.50;99.90;;;;;;5071359;28;20044;-67
2023/01/04 02:24:03;;;;;;;20.42;10.18;;;1.40;99.90;;;;;;5070944;28;20048;-66
2023/01/04 02:26:47;;;;;;;15.05;9.70;;;1.40;99.90;;;;;;5040716;28;20402;-66
2023/01/04 02:29:31;;;;;;;15.27;9.80;;;1.40;99.90;;;;;;5051773;28;20115;-66
2023/01/04 02:32:02;;;;;;;15.13;10.20;;;1.40;99.90;;;;;;5051396;28;20044;-67
2023/01/04 02:34:58;;;;;;;14.60;9.95;;;1.40;99.90;;;;;;5051349;28;20033;-66
2023/01/04 02:37:50;;;;;;;15.40;10.15;;;1.40;99.90;;;;;;5050956;28;20049;-66
2023/01/04 02:40:23;;;;;;;14.88;9.65;;;1.30;99.90;;;;;;5045115;28;20037;-66
2023/01/04 02:46:18;;;;;;;14.95;9.68;;;1.40;99.90;;;;;;5050925;28;20035;-67
2023/01/04 02:51:34;;;;;;;18.77;10.07;;;1.50;99.90;;;;;;5060667;28;20035;-67
2023/01/04 02:54:23;;;;;;;15.40;10.50;;;1.60;99.90;;;;;;5090680;28;20717;-66
2023/01/04 02:57:11;;;;;;;19.25;10.80;;;1.70;99.90;;;;;;5090577;28;20059;-67
2023/01/04 03:00:05;;;;;;;19.98;11.88;;;1.70;99.90;;;;;;5070997;28;20078;-67
2023/01/04 03:06:15;;;;;;;20.02;11.73;;;1.70;99.90;;;;;;5070955;28;20067;-67
2023/01/04 03:09:04;;;;;;;20.60;10.60;;;1.70;99.90;;;;;;5070663;28;20020;-67
2023/01/04 03:14:49;;;;;;;17.42;10.55;;;1.80;99.90;;;;;;5071210;28;20078;-67
2023/01/04 03:17:20;;;;;;;14.65;9.25;;;1.70;99.90;;;;;;5070516;28;20124;-67
2023/01/04 03:19:55;;;;;;;13.98;9.27;;;1.70;99.90;;;;;;5052707;28;20043;-67
2023/01/04 03:36:59;;;;;;;11.43;7.20;;;2.40;99.90;;;;;;5081784;28;20036;-67
2023/01/04 03:48:32;;;;;;;6.53;4.60;;;2.80;99.90;;;;;;5050790;28;20036;-67
2023/01/04 03:51:04;;;;;;;6.13;4.15;;;2.90;99.90;;;;;;5044399;28;20025;-67
2023/01/04 03:53:34;;;;;;;6.38;3.85;;;3.00;99.90;;;;;;5050428;28;20029;-67
2023/01/04 03:56:01;;;;;;;5.45;3.80;;;3.20;99.90;;;;;;5050278;28;20021;-67
2023/01/04 03:58:27;;;;;;;5.05;3.85;;;3.30;99.90;;;;;;5064795;28;20043;-69
2023/01/04 04:01:02;;;;;;;5.05;3.58;;;3.30;99.90;;;;;;5052067;28;20024;-66
2023/01/04 04:08:58;;;;;;;5.60;3.17;;;3.70;99.90;;;;;;5069565;28;20039;-67
2023/01/04 04:11:29;;;;;;;4.55;3.05;;;3.80;99.90;;;;;;5070592;28;20387;-67
2023/01/04 04:13:55;;;;;;;5.32;3.30;;;3.90;99.90;;;;;;5052789;28;20462;-67
2023/01/04 04:16:20;;;;;;;3.83;2.80;;;4.00;99.90;;;;;;5050729;28;20032;-66
2023/01/04 04:18:47;;;;;;;4.38;2.40;;;4.10;99.90;;;;;;5049536;28;20029;-68
2023/01/04 04:21:13;;;;;;;3.90;2.70;;;4.30;99.90;;;;;;5050614;28;20052;-67
2023/01/04 04:23:39;;;;;;;4.45;2.78;;;4.50;99.90;;;;;;5049757;28;20049;-68
2023/01/04 04:26:04;;;;;;;3.72;2.40;;;4.60;99.90;;;;;;5050411;28;20040;-67
2023/01/04 04:28:30;;;;;;;3.70;2.08;;;4.60;99.90;;;;;;5064148;28;20059;-67
2023/01/04 04:30:56;;;;;;;2.35;2.13;;;4.70;99.90;;;;;;5068608;28;20472;-67
2023/01/04 04:33:21;;;;;;;2.78;1.88;;;4.80;99.90;;;;;;5089458;28;20031;-68
2023/01/04 04:35:51;;;;;;;6.03;4.13;;;4.80;99.90;;;;;;5085229;28;20041;-67
2023/01/04 04:38:17;;;;;;;6.88;4.95;;;4.90;99.90;;;;;;5074233;28;20528;-67
2023/01/04 04:43:27;;;;;;;4.75;3.08;;;4.60;99.90;;;;;;5072533;28;20038;-67
2023/01/04 04:45:52;;;;;;;3.17;2.40;;;4.60;99.90;;;;;;5054975;28;20041;-67
2023/01/04 04:48:18;;;;;;;5.38;3.70;;;4.60;99.90;;;;;;5052932;28;20024;-67
2023/01/04 04:50:43;;;;;;;7.55;4.38;;;4.70;99.90;;;;;;5053243;28;20093;-68
2023/01/04 04:53:09;;;;;;;3.75;2.17;;;4.70;99.90;;;;;;5053345;28;20029;-67
2023/01/04 04:55:35;;;;;;;3.25;2.10;;;4.60;99.90;;;;;;5053819;28;20130;-67
2023/01/04 04:58:00;;;;;;;3.28;2.22;;;4.80;99.90;;;;;;5056894;28;20031;-68
2023/01/04 05:00:26;;;;;;;5.25;2.53;;;4.90;99.90;;;;;;5074106;28;20021;-67
2023/01/04 05:02:52;;;;;;;2.53;1.77;;;5.00;99.90;;;;;;5092604;28;20035;-68
2023/01/04 05:05:17;;;;;;;2.08;1.65;;;5.20;99.90;;;;;;5094036;28;20502;-67
2023/01/04 05:07:43;;;;;;;3.97;2.00;;;5.40;99.90;;;;;;5092842;28;20028;-68
2023/01/04 05:10:09;;;;;;;2.42;1.88;;;5.40;99.90;;;;;;5093809;28;20019;-68
2023/01/04 05:15:18;;;;;;;2.85;1.90;;;5.50;99.90;;;;;;5053128;28;20437;-67
2023/01/04 05:17:44;;;;;;;2.45;1.80;;;5.60;99.90;;;;;;5052142;28;20033;-67
2023/01/04 05:20:10;;;;;;;3.83;2.00;;;5.60;99.90;;;;;;5053497;28;20115;-67
2023/01/04 05:22:35;;;;;;;3.47;1.80;;;5.70;99.90;;;;;;5052959;28;20060;-65
2023/01/04 05:25:02;;;;;;;2.15;1.80;;;5.80;99.90;;;;;;5052509;28;20111;-66
2023/01/04 05:27:28;;;;;;;3.70;2.20;;;5.80;99.90;;;;;;5053192;28;20064;-66
2023/01/04 05:32:38;;;;;;;3.80;2.38;;;5.90;99.90;;;;;;5054641;28;20090;-67
2023/01/04 05:35:04;;;;;;;3.55;1.75;;;5.90;99.90;;;;;;5053797;28;20029;-66
2023/01/04 05:37:29;;;;;;;2.42;1.98;;;5.90;99.90;;;;;;5091936;28;20149;-67
2023/01/04 05:39:55;;;;;;;3.38;1.77;;;5.90;99.90;;;;;;5091857;28;20044;-67
2023/01/04 05:42:26;;;;;;;2.80;2.15;;;6.00;99.90;;;;;;5093255;28;20028;-67
2023/01/04 05:44:57;;;;;;;3.28;1.92;;;6.00;99.90;;;;;;5091657;28;20028;-66
2023/01/04 05:47:23;;;;;;;4.78;1.67;;;6.00;99.90;;;;;;5093136;28;20020;-67
2023/01/04 05:49:49;;;;;;;2.08;1.63;;;6.10;99.90;;;;;;5091848;28;20024;-67
2023/01/04 05:52:15;;;;;;;3.03;1.80;;;6.20;99.90;;;;;;5092752;28;20530;-66
2023/01/04 05:54:41;;;;;;;2.30;1.50;;;6.30;99.90;;;;;;5091890;28;20020;-68
2023/01/04 05:57:07;;;;;;;2.83;2.13;;;;;;;;;;5089744;28;20065;-67
2023/01/04 05:59:32;;;;;;;2.95;2.00;;;6.20;99.90;;;;;;5072141;28;20024;-66
2023/01/04 06:01:58;;;;;;;2.28;1.85;;;6.20;99.90;;;;;;5085081;28;20106;-66
2023/01/04 06:04:24;;;;;;;3.88;1.95;;;6.20;99.90;;;;;;5042740;28;20474;-67
2023/01/04 06:06:49;;;;;;;1.92;1.55;;;6.20;99.90;;;;;;5051836;28;20025;-67
2023/01/04 06:09:15;;;;;;;5.10;2.13;;;6.30;99.90;;;;;;5052075;28;20020;-67
2023/01/04 06:11:40;;;;;;;2.65;1.77;;;6.30;99.90;;;;;;5043935;28;20094;-68
2023/01/04 06:14:06;;;;;;;1.52;1.42;;;6.30;99.90;;;;;;5051283;28;20025;-67
2023/01/04 06:16:32;;;;;;;2.13;1.63;;;6.40;99.90;;;;;;5052358;28;20458;-67
2023/01/04 06:18:57;;;;;;;2.45;1.80;;;6.40;99.90;;;;;;5051145;28;20032;-67
2023/01/04 06:21:25;;;;;;;3.60;1.73;;;6.40;99.90;;;;;;5052364;28;20474;-67
2023/01/04 06:23:52;;;;;;;3.25;2.00;;;6.40;99.90;;;;;;5050547;28;20080;-68
2023/01/04 06:26:18;;;;;;;1.92;1.30;;;6.40;99.90;;;;;;5051905;28;20107;-67
2023/01/04 06:28:44;;;;;;;2.28;1.65;;;6.40;99.90;;;;;;5051110;28;20108;-67
2023/01/04 06:31:11;;;;;;;2.15;1.25;;;6.40;99.90;;;;;;5069199;28;20024;-67
2023/01/04 06:33:37;;;;;;;3.25;1.90;;;6.30;99.90;;;;;;5085960;28;20020;-67
2023/01/04 06:36:03;;;;;;;1.98;1.60;;;6.30;99.90;;;;;;5062631;28;20029;-67
2023/01/04 06:38:30;;;;;;;2.30;1.65;;;6.30;99.90;;;;;;5051306;28;20413;-68
2023/01/04 06:40:56;;;;;;;2.10;1.80;;;6.30;99.90;;;;;;5051136;28;20101;-67
2023/01/04 06:43:21;;;;;;;2.95;2.15;;;6.20;99.90;;;;;;5051177;28;20116;-67
2023/01/04 06:45:47;;;;;;;2.05;1.70;;;6.20;99.90;;;;;;5050325;28;20091;-67
2023/01/04 06:48:13;;;;;;;2.22;1.80;;;6.20;99.90;;;;;;5050912;28;20453;-67
2023/01/04 06:50:38;;;;;;;4.45;1.40;;;6.30;99.90;;;;;;5051803;28;20051;-67
2023/01/04 06:53:04;;;;;;;1.50;1.30;;;6.30;99.90;;;;;;5050329;28;20334;-67
2023/01/04 06:55:30;;;;;;;2.15;1.70;;;6.20;99.90;;;;;;5051241;28;20061;-67
2023/01/04 06:57:56;;;;;;;2.28;1.70;;;6.20;99.90;;;;;;5060056;28;20047;-68
2023/01/04 07:00:22;;;;;;;3.47;2.03;;;6.30;99.90;;;;;;5071745;28;20037;-67
2023/01/04 07:02:47;;;;;;;3.13;2.10;;;6.30;99.90;;;;;;5069992;28;20037;-67
2023/01/04 07:05:13;;;;;;;2.83;2.45;;;6.30;99.90;;;;;;5062337;28;20104;-66
2023/01/04 07:07:38;;;;;;;2.45;1.98;;;6.30;99.90;;;;;;5051292;28;20029;-67
2023/01/04 07:10:05;;;;;;;3.30;1.60;;;6.20;99.90;;;;;;5050870;28;20032;-67
2023/01/04 07:12:31;;;;;;;2.50;1.70;;;6.20;99.90;;;;;;5051220;28;20033;-67
2023/01/04 07:14:57;;;;;;;2.97;2.30;;;6.20;99.90;;;;;;5049952;28;20040;-66
2023/01/04 07:17:22;;;;;;;2.30;1.60;;;6.20;99.90;;;;;;5051378;28;20032;-66
2023/01/04 07:19:48;;;;;;;2.70;1.88;;;6.20;99.90;;;;;;5049990;28;20033;-67
2023/01/04 07:22:14;;;;;;;2.10;1.50;;;6.20;99.90;;;;;;5050778;28;20032;-67
2023/01/04 07:24:39;;;;;;;3.05;1.63;;;6.20;99.90;;;;;;5050543;28;20055;-67
2023/01/04 07:27:05;;;;;;;4.22;2.45;;;6.20;99.90;;;;;;5050857;28;20028;-66
2023/01/04 07:29:31;;;;;;;3.55;1.90;;;6.30;99.90;;;;;;5050559;28;20082;-67
2023/01/04 07:31:56;;;;;;;2.42;1.55;;;6.20;99.90;;;;;;5049854;28;20083;-66
2023/01/04 07:34:24;;;;;;;3.47;1.40;;;6.20;99.90;;;;;;5050991;28;20109;-66
2023/01/04 07:36:50;;;;;;;2.38;1.65;;;6.30;99.90;;;;;;5080257;28;20216;-67
2023/01/04 07:39:17;;;;;;;1.25;1.13;;;6.30;99.90;;;;;;5090538;28;20020;-67
2023/01/04 07:41:43;;;;;;;2.95;1.20;;;6.20;99.90;;;;;;5090546;28;20039;-69
2023/01/04 07:44:10;;;;;;;1.85;1.05;;;6.10;99.90;;;;;;5090930;28;20024;-67
2023/01/04 07:46:37;;;;;;;1.55;1.20;;;5.90;99.90;;;;;;5091058;28;20040;-67
2023/01/04 07:49:03;;;;;;;2.58;1.08;;;5.80;99.90;;;;;;5090163;28;20052;-67
2023/01/04 07:51:30;;;;;;;3.17;1.60;;;5.80;99.90;;;;;;5091131;28;20461;-67
2023/01/04 07:53:56;;;;;;;5.43;1.77;;;5.80;99.90;;;;;;5089844;28;20016;-67
2023/01/04 07:56:21;;;;;;;4.18;1.67;;;5.70;99.90;;;;;;5091239;28;20043;-67
2023/01/04 07:58:47;;;;;;;2.63;1.35;;;5.60;99.90;;;;;;5072812;28;20032;-67
2023/01/04 08:01:16;;;;;;;4.63;1.75;;;5.60;99.90;;;;;;5062912;28;20036;-68
2023/01/04 08:03:43;;;;;;;3.90;1.55;;;5.50;99.90;;;;;;5041600;28;20082;-67
2023/01/04 08:06:11;;;;;;;4.07;1.50;;;5.60;99.90;;;;;;5050738;28;20044;-68
2023/01/04 08:08:37;;;;;;;5.30;2.50;;;5.60;99.90;;;;;;5052703;28;20025;-66
2023/01/04 08:11:05;;;;;;;6.82;2.22;;;5.60;99.90;;;;;;5054094;28;20033;-66
2023/01/04 08:13:31;;;;;;;3.95;1.67;;;5.50;99.90;;;;;;5053992;28;20087;-66
2023/01/04 08:15:56;;;;;;;5.38;2.80;;;5.40;99.90;;;;;;5053442;28;20072;-66
2023/01/04 08:18:22;;;;;;;7.15;2.97;;;5.40;99.90;;;;;;5057828;28;20111;-66
2023/01/04 08:20:48;;;;;;;3.95;1.80;;;5.30;99.90;;;;;;5062057;28;20376;-66
2023/01/04 08:23:14;;;;;;;5.28;1.45;;;5.20;99.90;;;;;;5060799;28;20571;-66
2023/01/04 08:25:39;;;;;;;1.42;1.13;;;5.20;99.90;;;;;;5054040;28;20061;-67
2023/01/04 08:28:05;;;;;;;1.05;1.00;;;5.20;99.90;;;;;;5053604;28;20048;-66
2023/01/04 08:30:30;;;;;;;3.47;1.00;;;5.20;99.90;;;;;;5059428;28;20113;-66
2023/01/04 08:32:56;;;;;;;2.25;1.10;;;5.30;99.90;;;;;;5093455;28;20097;-66
2023/01/04 08:35:22;;;;;;;2.28;1.10;;;5.30;99.90;;;;;;5089348;28;20032;-66
2023/01/04 08:37:48;;;;;;;3.55;1.50;;;5.30;99.90;;;;;;5072842;28;20043;-66
2023/01/04 08:40:14;;;;;;;2.75;1.17;;;5.30;99.90;;;;;;5074277;28;20027;-66
2023/01/04 08:42:39;;;;;;;2.58;0.90;;;5.30;99.90;;;;;;5073877;28;20470;-67
2023/01/04 08:45:05;;;;;;;2.63;1.63;;;5.40;99.90;;;;;;5072868;28;20548;-66
2023/01/04 08:47:32;;;;;;;1.52;0.88;;;5.50;99.90;;;;;;5074182;28;20036;-66
2023/01/04 08:49:58;;;;;;;2.58;0.98;;;5.60;99.90;;;;;;5065553;28;20054;-66
2023/01/04 08:52:24;;;;;;;3.30;0.95;;;5.60;99.90;;;;;;5053796;28;20025;-66
2023/01/04 08:54:50;;;;;;;4.03;0.80;;;5.60;99.90;;;;;;5052269;28;20390;-67
2023/01/04 08:57:16;;;;;;;2.28;0.57;;;5.60;99.90;;;;;;5058178;28;20458;-67
2023/01/04 08:59:42;;;;;;;2.08;1.00;;;5.70;99.90;;;;;;5072518;28;20060;-68
2023/01/04 09:02:22;;;;;;;3.88;0.95;;;5.80;99.90;;;;;;5055595;28;20079;-67
2023/01/04 09:04:48;;;;;;;2.55;0.70;;;5.90;99.90;;;;;;5072773;28;20104;-67
2023/01/04 09:07:14;;;;;;;2.33;1.10;;;5.90;99.90;;;;;;5073767;28;20028;-67
2023/01/04 09:09:39;;;;;;;4.10;1.00;;;6.10;99.90;;;;;;5072822;28;20029;-67
2023/01/04 09:12:05;;;;;;;1.55;1.00;;;6.20;99.90;;;;;;5073339;28;20028;-66
2023/01/04 09:14:30;;;;;;;3.30;1.08;;;6.30;99.90;;;;;;5073271;28;20078;-67
2023/01/04 09:16:56;;;;;;;1.00;0.73;;;6.50;99.90;;;;;;5072893;28;20471;-67
2023/01/04 09:19:22;;;;;;;2.25;0.90;;;6.50;99.90;;;;;;5070636;28;20025;-67
2023/01/04 09:21:47;;;;;;;4.32;0.82;;;6.50;99.90;;;;;;5055373;28;20496;-67
2023/01/04 09:24:13;;;;;;;1.77;0.90;;;6.70;99.90;;;;;;5051385;28;20441;-67
2023/01/04 09:26:39;;;;;;;3.38;1.42;;;6.70;99.90;;;;;;5053337;28;20029;-68
2023/01/04 09:29:05;;;;;;;1.77;0.80;;;6.80;99.90;;;;;;5052486;28;20025;-67
2023/01/04 09:31:31;;;;;;;1.75;1.00;;;6.90;99.90;;;;;;5052875;28;20025;-67
2023/01/04 09:33:57;;;;;;;4.60;0.88;;;7.00;99.90;;;;;;5051937;28;20036;-67
2023/01/04 09:36:23;;;;;;;2.00;0.57;;;7.10;99.90;;;;;;5075793;28;20449;-67
2023/01/04 09:38:50;;;;;;;1.30;0.60;;;7.10;99.90;;;;;;5091481;28;20385;-67
2023/01/04 09:41:28;;;;;;;2.10;0.70;;;7.20;99.90;;;;;;5093700;28;20103;-67
2023/01/04 09:44:02;;;;;;;1.65;0.80;;;7.30;99.90;;;;;;5090887;28;20031;-67
2023/01/04 09:46:57;;;;;;;2.38;0.90;;;7.40;99.90;;;;;;5052321;28;20036;-67
2023/01/04 09:49:38;;;;;;;1.75;0.68;;;7.40;99.90;;;;;;5052860;28;20528;-67
2023/01/04 09:52:09;;;;;;;1.17;0.70;;;7.50;99.90;;;;;;5052589;28;20029;-67
2023/01/04 09:54:41;;;;;;;2.92;0.90;;;7.50;99.90;;;;;;5052279;28;20036;-66
2023/01/04 09:57:20;;;;;;;2.38;1.15;;;7.60;99.90;;;;;;5054943;28;20110;-67
2023/01/04 09:59:48;;;;;;;1.33;0.50;;;7.60;99.90;;;;;;5071510;28;20032;-67
2023/01/04 10:02:20;;;;;;;1.58;0.80;;;7.60;99.90;;;;;;5072592;28;20024;-66
2023/01/04 10:04:48;;;;;;;4.55;1.00;;;7.60;99.90;;;;;;5071319;28;20047;-67
2023/01/04 10:07:26;;;;;;;2.38;1.00;;;7.70;99.90;;;;;;5072248;28;20028;-67
2023/01/04 10:09:51;;;;;;;1.08;0.85;;;7.70;99.90;;;;;;5071223;28;20075;-67
2023/01/04 10:12:38;;;;;;;1.38;0.73;;;7.70;99.90;;;;;;5072529;28;20064;-67
2023/01/04 10:15:10;;;;;;;1.27;0.68;;;7.80;99.90;;;;;;5060599;28;20045;-67
2023/01/04 10:17:38;;;;;;;2.47;0.80;;;7.80;99.90;;;;;;5051767;28;20041;-66
2023/01/04 10:20:30;;;;;;;1.80;0.70;;;7.80;99.90;;;;;;5051404;28;20040;-67
2023/01/04 10:23:08;;;;;;;1.30;0.80;;;7.90;99.90;;;;;;5050722;28;20055;-67
2023/01/04 10:25:59;;;;;;;4.35;0.80;;;7.90;99.90;;;;;;5051689;28;20441;-66
2023/01/04 10:28:38;;;;;;;2.67;0.47;;;8.00;99.90;;;;;;5064615;28;20095;-66
2023/01/04 10:31:24;;;;;;;4.50;0.60;;;8.00;99.90;;;;;;5070556;28;20110;-67
2023/01/04 10:34:05;;;;;;;1.75;0.63;;;8.00;99.90;;;;;;5070890;28;20033;-67
2023/01/04 10:36:31;;;;;;;1.25;0.65;;;8.00;99.90;;;;;;5082224;28;20603;-66
2023/01/04 10:39:09;;;;;;;2.65;0.85;;;8.10;99.90;;;;;;5090997;28;20107;-67
2023/01/04 10:41:41;;;;;;;2.88;1.05;;;8.10;99.90;;;;;;5092017;28;20430;-67
2023/01/04 10:44:37;;;;;;;1.73;0.55;;;8.10;99.90;;;;;;5085305;28;20029;-67
2023/01/04 10:47:42;;;;;;;2.13;0.90;;;8.30;99.90;;;;;;5070865;28;20048;-67
2023/01/04 10:50:17;;;;;;;1.55;0.82;;;8.30;99.90;;;;;;5042193;28;20045;-65
2023/01/04 10:52:50;;;;;;;0.77;0.50;;;8.40;99.90;;;;;;5050758;28;20029;-69
2023/01/04 10:55:29;;;;;;;2.55;0.65;;;8.50;99.90;;;;;;5051755;28;20116;-67
2023/01/04 10:58:05;;;;;;;3.30;0.60;;;8.70;99.90;;;;;;5053964;28;20054;-67
2023/01/04 11:00:48;;;;;;;1.38;0.85;;;8.80;99.90;;;;;;5090674;28;20393;-67
2023/01/04 11:03:20;;;;;;;5.20;0.60;;;8.80;99.90;;;;;;5091246;28;20076;-67
2023/01/04 11:06:14;;;;;;;0.85;0.57;;;8.90;99.90;;;;;;5090586;28;20027;-68
2023/01/04 11:08:51;;;;;;;1.95;0.80;;;8.90;99.90;;;;;;5090752;28;20020;-67
2023/01/04 11:11:29;;;;;;;0.43;0.43;;;8.90;99.90;;;;;;5091466;28;20052;-66
2023/01/04 11:13:54;;;;;;;1.40;0.70;;;9.00;99.90;;;;;;5084939;28;20103;-66
2023/01/04 11:16:20;;;;;;;3.33;0.63;;;9.10;99.90;;;;;;5050721;28;20115;-67
2023/01/04 11:18:48;;;;;;;0.45;0.45;;;9.10;99.90;;;;;;5050043;28;20033;-67
2023/01/04 11:21:14;;;;;;;1.85;0.90;;;9.20;99.90;;;;;;5051306;28;20017;-66
2023/01/04 11:23:40;;;;;;;1.75;0.60;;;9.20;99.90;;;;;;5041869;28;20053;-67
2023/01/04 11:26:14;;;;;;;3.25;0.63;;;9.20;99.90;;;;;;5050301;28;20031;-67
2023/01/04 11:28:48;;;;;;;3.85;0.63;;;9.30;99.90;;;;;;5050626;28;20041;-67
2023/01/04 11:31:27;;;;;;;3.15;0.80;;;9.30;99.90;;;;;;5051684;28;20044;-67
2023/01/04 11:34:03;;;;;;;2.75;0.75;;;9.20;99.90;;;;;;5050113;28;20032;-67
2023/01/04 11:36:43;;;;;;;2.35;0.70;;;9.30;99.90;;;;;;5079062;28;20093;-68
2023/01/04 11:39:23;;;;;;;1.65;0.70;;;9.30;99.90;;;;;;5090944;28;20020;-67
2023/01/04 11:41:57;;;;;;;1.20;0.70;;;9.30;99.90;;;;;;5091415;28;20358;-68
2023/01/04 11:44:24;;;;;;;1.55;0.82;;;9.40;99.90;;;;;;5079447;28;20440;-67
2023/01/04 11:47:23;;;;;;;3.53;0.70;;;9.40;99.90;;;;;;5053724;28;20128;-67
2023/01/04 11:49:50;;;;;;;3.75;1.10;;;9.50;99.90;;;;;;5054037;28;20111;-67
2023/01/04 11:52:36;;;;;;;3.63;1.00;;;9.50;99.90;;;;;;5054553;28;20036;-67
2023/01/04 11:55:27;;;;;;;2.80;0.75;;;9.50;99.90;;;;;;5053551;28;20068;-67
2023/01/04 11:58:26;;;;;;;3.00;0.70;;;9.50;99.90;;;;;;5062731;28;20025;-67
2023/01/04 12:00:54;;;;;;;0.80;0.38;;;9.40;99.90;;;;;;5076244;28;20096;-67
2023/01/04 12:03:33;;;;;;;2.00;0.85;;;9.40;99.90;;;;;;5094112;28;20032;-66
2023/01/04 12:05:59;;;;;;;5.32;0.60;;;9.50;99.90;;;;;;5093987;28;20516;-67
2023/01/04 12:08:30;;;;;;;3.10;1.08;;;9.50;99.90;;;;;;5094726;28;20036;-67
2023/01/04 12:10:57;;;;;;;1.10;0.52;;;9.60;99.90;;;;;;5093896;28;20051;-67
2023/01/04 12:13:23;;;;;;;3.47;1.00;;;9.60;99.90;;;;;;5093260;28;20034;-68
2023/01/04 12:16:24;;;;;;;2.40;0.60;;;9.50;99.90;;;;;;5073727;28;20119;-68
2023/01/04 12:18:50;;;;;;;2.50;1.13;;;9.40;99.90;;;;;;5053210;28;20056;-68
2023/01/04 12:21:22;;;;;;;1.80;0.80;;;9.50;99.90;;;;;;5054234;28;20475;-67
2023/01/04 12:23:48;;;;;;;3.92;0.65;;;9.50;99.90;;;;;;5052853;28;20155;-66
2023/01/04 12:26:15;;;;;;;1.33;0.75;;;9.50;99.90;;;;;;5036890;28;20140;-66
2023/01/04 12:28:45;;;;;;;5.43;0.90;;;9.50;99.90;;;;;;5053522;28;20486;-67
2023/01/04 12:31:19;;;;;;;2.33;0.90;;;9.50;99.90;;;;;;5054109;28;20031;-66
2023/01/04 12:33:56;;;;;;;3.35;0.63;;;9.60;99.90;;;;;;5053174;28;20112;-66
2023/01/04 12:36:37;;;;;;;0.73;0.50;;;9.70;99.90;;;;;;5080505;28;20485;-66
2023/01/04 12:39:14;;;;;;;;;;;9.70;99.90;;;;;;5093849;28;20178;-66
2023/01/04 12:41:40;;;;;;;1.55;0.80;;;9.70;99.90;;;;;;5094000;28;19904;-67
2023/01/04 12:44:37;;;;;;;3.05;0.77;;;9.90;99.90;;;;;;5089849;28;20035;-67
2023/01/04 12:50:01;;;;;;;3.90;0.80;;;10.10;99.90;;;;;;5052331;28;20625;-67
2023/01/04 12:52:27;;;;;;;1.60;0.70;;;10.30;99.90;;;;;;5053605;28;20091;-66
2023/01/04 12:54:59;;;;;;;2.20;0.52;;;10.40;99.90;;;;;;5051480;28;20028;-67
2023/01/04 12:57:30;;;;;;;1.00;0.60;;;10.40;99.90;;;;;;5059425;28;20017;-67
2023/01/04 13:00:03;;;;;;;1.15;0.52;;;10.50;99.90;;;;;;5052140;28;20394;-66
2023/01/04 13:02:30;;;;;;;2.30;0.60;;;10.50;99.90;;;;;;5053539;28;20028;-67
2023/01/04 13:05:01;;;;;;;1.25;0.60;;;10.50;99.90;;;;;;5052660;28;20025;-67
2023/01/04 13:07:45;;;;;;;1.77;0.70;;;10.60;99.90;;;;;;5053880;28;20525;-67
2023/01/04 13:10:40;;;;;;;3.90;0.43;;;10.60;99.90;;;;;;5053395;28;20417;-67
2023/01/04 13:13:18;;;;;;;2.13;0.52;;;10.60;99.90;;;;;;5052949;28;20094;-67
2023/01/04 13:16:17;;;;;;;1.73;0.80;;;10.60;99.90;;;;;;5067845;28;20044;-67
2023/01/04 13:18:57;;;;;;;1.02;0.45;;;10.60;99.90;;;;;;5052193;28;20040;-67
2023/01/04 13:21:40;;;;;;;1.95;0.47;;;10.60;99.90;;;;;;5053622;28;20032;-67
2023/01/04 13:24:20;;;;;;;3.40;0.60;;;10.70;99.90;;;;;;5052298;28;20049;-67
2023/01/04 13:26:47;;;;;;;1.65;0.43;;;10.80;99.90;;;;;;5052791;28;20413;-67
2023/01/04 13:29:24;;;;;;;0.90;0.55;;;10.70;99.90;;;;;;5052635;28;20076;-66
2023/01/04 13:31:59;;;;;;;1.23;0.52;;;10.70;99.90;;;;;;5052835;28;20065;-66
2023/01/04 13:34:27;;;;;;;1.70;0.60;;;10.70;99.90;;;;;;5084736;28;20032;-66
2023/01/04 13:37:17;;;;;;;1.45;0.60;;;10.70;99.90;;;;;;5074785;28;20377;-67
2023/01/04 13:39:46;;;;;;;0.70;0.43;;;10.80;99.90;;;;;;5071632;28;20024;-68
2023/01/04 13:42:23;;;;;;;2.75;0.60;;;10.70;99.90;;;;;;5072058;28;20033;-67
2023/01/04 13:45:01;;;;;;;3.03;0.80;;;10.70;99.90;;;;;;5071669;28;20428;-67
2023/01/04 13:47:28;;;;;;;1.33;0.50;;;10.70;99.90;;;;;;5072915;28;20024;-66
2023/01/04 13:49:54;;;;;;;0.85;0.52;;;10.70;99.90;;;;;;5071771;28;20054;-66
2023/01/04 13:52:27;;;;;;;5.57;1.10;;;10.70;99.90;;;;;;5072865;28;20052;-66
2023/01/04 13:55:18;;;;;;;8.88;0.88;;;10.70;99.90;;;;;;5071327;28;20025;-66
2023/01/04 13:58:05;;;;;;;1.00;0.60;;;10.70;99.90;;;;;;5071547;28;20103;-67
2023/01/04 14:00:35;;;;;;;2.22;0.95;;;10.70;99.90;;;;;;5072785;28;20036;-66
2023/01/04 14:03:07;;;;;;;;;;;10.80;99.90;;;;;;5071487;28;20090;-66
2023/01/04 14:05:34;;;;;;;0.47;0.40;;;10.80;99.90;;;;;;5066311;28;19908;-67
2023/01/04 14:08:00;;;;;;;1.40;0.65;;;10.80;99.90;;;;;;5051434;28;20068;-66